sensor_id;sensor_type;location;lat;lon;timestamp;pressure;altitude;pressure_sealevel;temperature;humidity
14120;BME280;7138;49.246;9.100;2022-10-31T00:00:40;99180.09;;;14.71;100.00
14120;BME280;7138;49.246;9.100;2022-10-31T00:03:06;99186.22;;;14.66;100.00
14120;BME280;7138;49.246;9.100;2022-10-31T00:05:32;99183.69;;;14.60;100.00
14120;BME280;7138;49.246;9.100;2022-10-31T00:07:58;99181.13;;;14.55;100.00
14120;BME280;7138;49.246;9.100;2022-10-31T00:10:24;99178.53;;;14.55;100.00
14120;BME280;7138;49.246;9.100;2022-10-31T00:12:51;99164.75;;;14.41;100.00
14120;BME280;7138;49.246;9.100;2022-10-31T00:15:17;99176.00;;;14.49;100.00
14120;BME280;7138;49.246;9.100;2022-10-31T00:17:43;99177.72;;;14.49;100.00
14120;BME280;7138;49.246;9.100;2022-10-31T00:20:09;99175.97;;;14.51;100.00
14120;BME280;7138;49.246;9.100;2022-10-31T00:22:35;99182.03;;;14.51;100.00
14120;BME280;7138;49.246;9.100;2022-10-31T00:25:01;99174.22;;;14.53;100.00
14120;BME280;7138;49.246;9.100;2022-10-31T00:27:27;99168.13;;;14.55;100.00
14120;BME280;7138;49.246;9.100;2022-10-31T00:29:54;99175.03;;;14.56;100.00
14120;BME280;7138;49.246;9.100;2022-10-31T00:32:20;99168.13;;;14.54;100.00
14120;BME280;7138;49.246;9.100;2022-10-31T00:34:46;99175.06;;;14.55;100.00
14120;BME280;7138;49.246;9.100;2022-10-31T00:37:12;99176.84;;;14.51;100.00
14120;BME280;7138;49.246;9.100;2022-10-31T00:39:38;99182.09;;;14.45;100.00
14120;BME280;7138;49.246;9.100;2022-10-31T00:42:04;99176.03;;;14.42;100.00
14120;BME280;7138;49.246;9.100;2022-10-31T00:44:30;99181.25;;;14.42;100.00
14120;BME280;7138;49.246;9.100;2022-10-31T00:46:57;99176.06;;;14.39;100.00
14120;BME280;7138;49.246;9.100;2022-10-31T00:49:23;99179.50;;;14.42;100.00
14120;BME280;7138;49.246;9.100;2022-10-31T00:51:49;99178.66;;;14.43;100.00
14120;BME280;7138;49.246;9.100;2022-10-31T00:54:14;99182.94;;;14.44;100.00
14120;BME280;7138;49.246;9.100;2022-10-31T00:56:40;99176.00;;;14.45;100.00
14120;BME280;7138;49.246;9.100;2022-10-31T00:59:06;99176.00;;;14.46;100.00
14120;BME280;7138;49.246;9.100;2022-10-31T01:01:32;99182.09;;;14.45;100.00
14120;BME280;7138;49.246;9.100;2022-10-31T01:03:59;99179.50;;;14.44;100.00
14120;BME280;7138;49.246;9.100;2022-10-31T01:06:25;99181.25;;;14.42;100.00
14120;BME280;7138;49.246;9.100;2022-10-31T01:08:51;99173.50;;;14.37;100.00
14120;BME280;7138;49.246;9.100;2022-10-31T01:11:20;99178.69;;;14.36;100.00
14120;BME280;7138;49.246;9.100;2022-10-31T01:13:47;99178.72;;;14.33;100.00
14120;BME280;7138;49.246;9.100;2022-10-31T01:16:18;99170.91;;;14.30;100.00
14120;BME280;7138;49.246;9.100;2022-10-31T01:18:44;99171.81;;;14.29;100.00
14120;BME280;7138;49.246;9.100;2022-10-31T01:21:15;99179.63;;;14.26;100.00
14120;BME280;7138;49.246;9.100;2022-10-31T01:23:41;99183.09;;;14.24;100.00
14120;BME280;7138;49.246;9.100;2022-10-31T01:26:11;99177.06;;;14.22;100.00
14120;BME280;7138;49.246;9.100;2022-10-31T01:28:44;99179.66;;;14.19;100.00
14120;BME280;7138;49.246;9.100;2022-10-31T01:31:10;99182.28;;;14.18;100.00
14120;BME280;7138;49.246;9.100;2022-10-31T01:33:37;99177.94;;;14.17;100.00
14120;BME280;7138;49.246;9.100;2022-10-31T01:36:15;99188.38;;;14.15;100.00
14120;BME280;7138;49.246;9.100;2022-10-31T01:38:41;99195.31;;;14.10;100.00
14120;BME280;7138;49.246;9.100;2022-10-31T01:41:09;99185.81;;;14.09;100.00
14120;BME280;7138;49.246;9.100;2022-10-31T01:43:45;99186.69;;;14.07;100.00
14120;BME280;7138;49.246;9.100;2022-10-31T01:46:11;99183.28;;;14.00;100.00
14120;BME280;7138;49.246;9.100;2022-10-31T01:48:39;99183.25;;;13.99;100.00
14120;BME280;7138;49.246;9.100;2022-10-31T01:51:08;99183.31;;;13.94;100.00
14120;BME280;7138;49.246;9.100;2022-10-31T01:53:40;99178.97;;;13.95;100.00
14120;BME280;7138;49.246;9.100;2022-10-31T01:56:07;99187.66;;;13.86;100.00
14120;BME280;7138;49.246;9.100;2022-10-31T01:58:34;99178.16;;;13.84;100.00
14120;BME280;7138;49.246;9.100;2022-10-31T02:01:02;99182.47;;;13.86;100.00
14120;BME280;7138;49.246;9.100;2022-10-31T02:03:30;99178.13;;;13.87;100.00
14120;BME280;7138;49.246;9.100;2022-10-31T02:05:58;99177.28;;;13.85;100.00
14120;BME280;7138;49.246;9.100;2022-10-31T02:08:28;99181.63;;;13.84;100.00
14120;BME280;7138;49.246;9.100;2022-10-31T02:10:58;99178.19;;;13.82;100.00
14120;BME280;7138;49.246;9.100;2022-10-31T02:13:25;99182.50;;;13.82;100.00
14120;BME280;7138;49.246;9.100;2022-10-31T02:15:56;99179.91;;;13.80;100.00
14120;BME280;7138;49.246;9.100;2022-10-31T02:18:26;99179.06;;;13.78;100.00
14120;BME280;7138;49.246;9.100;2022-10-31T02:21:07;99180.81;;;13.76;100.00
14120;BME280;7138;49.246;9.100;2022-10-31T02:24:28;99173.03;;;13.73;100.00
14120;BME280;7138;49.246;9.100;2022-10-31T02:27:12;99180.84;;;13.68;100.00
14120;BME280;7138;49.246;9.100;2022-10-31T02:30:05;99173.94;;;13.67;100.00
14120;BME280;7138;49.246;9.100;2022-10-31T02:33:07;99179.13;;;13.66;100.00
14120;BME280;7138;49.246;9.100;2022-10-31T02:35:48;99168.78;;;13.58;100.00
14120;BME280;7138;49.246;9.100;2022-10-31T02:38:45;99171.44;;;13.48;100.00
14120;BME280;7138;49.246;9.100;2022-10-31T02:41:26;99168.84;;;13.45;100.00
14120;BME280;7138;49.246;9.100;2022-10-31T02:44:06;99176.66;;;13.42;100.00
14120;BME280;7138;49.246;9.100;2022-10-31T02:46:40;99174.06;;;13.42;100.00
14120;BME280;7138;49.246;9.100;2022-10-31T02:49:21;99177.50;;;13.44;100.00
14120;BME280;7138;49.246;9.100;2022-10-31T02:51:49;99178.41;;;13.43;100.00
14120;BME280;7138;49.246;9.100;2022-10-31T02:54:19;99176.69;;;13.36;100.00
14120;BME280;7138;49.246;9.100;2022-10-31T02:56:48;99187.06;;;13.36;100.00
14120;BME280;7138;49.246;9.100;2022-10-31T02:59:16;99176.66;;;13.39;100.00
14120;BME280;7138;49.246;9.100;2022-10-31T03:02:09;99174.06;;;13.42;100.00
14120;BME280;7138;49.246;9.100;2022-10-31T03:05:02;99178.41;;;13.43;100.00
14120;BME280;7138;49.246;9.100;2022-10-31T03:07:42;99176.66;;;13.43;100.00
14120;BME280;7138;49.246;9.100;2022-10-31T03:10:20;99180.13;;;13.41;100.00
14120;BME280;7138;49.246;9.100;2022-10-31T03:13:03;99173.22;;;13.37;100.00
14120;BME280;7138;49.246;9.100;2022-10-31T03:15:36;99175.78;;;13.38;100.00
14120;BME280;7138;49.246;9.100;2022-10-31T03:18:08;99176.69;;;13.40;100.00
14120;BME280;7138;49.246;9.100;2022-10-31T03:20:39;99168.91;;;13.37;100.00
14120;BME280;7138;49.246;9.100;2022-10-31T03:23:12;99180.09;;;13.45;100.00
14120;BME280;7138;49.246;9.100;2022-10-31T03:25:40;99177.50;;;13.47;100.00
14120;BME280;7138;49.246;9.100;2022-10-31T03:28:10;99180.97;;;13.49;100.00
14120;BME280;7138;49.246;9.100;2022-10-31T03:30:39;99180.13;;;13.38;100.00
14120;BME280;7138;49.246;9.100;2022-10-31T03:33:12;99181.00;;;13.37;100.00
14120;BME280;7138;49.246;9.100;2022-10-31T03:35:45;99179.28;;;13.40;100.00
14120;BME280;7138;49.246;9.100;2022-10-31T03:38:13;99181.88;;;13.37;100.00
14120;BME280;7138;49.246;9.100;2022-10-31T03:40:43;99182.72;;;13.41;100.00
14120;BME280;7138;49.246;9.100;2022-10-31T03:43:16;99176.69;;;13.40;100.00
14120;BME280;7138;49.246;9.100;2022-10-31T03:45:46;99172.34;;;13.35;100.00
14120;BME280;7138;49.246;9.100;2022-10-31T03:48:13;99184.50;;;13.30;100.00
14120;BME280;7138;49.246;9.100;2022-10-31T03:50:52;99183.66;;;13.25;100.00
14120;BME280;7138;49.246;9.100;2022-10-31T03:53:26;99179.31;;;13.24;100.00
14120;BME280;7138;49.246;9.100;2022-10-31T03:56:02;99178.47;;;13.25;100.00
14120;BME280;7138;49.246;9.100;2022-10-31T03:58:37;99175.00;;;13.20;100.00
14120;BME280;7138;49.246;9.100;2022-10-31T04:01:09;99174.16;;;13.19;100.00
14120;BME280;7138;49.246;9.100;2022-10-31T04:03:38;99176.75;;;13.21;100.00
14120;BME280;7138;49.246;9.100;2022-10-31T04:06:09;99181.94;;;13.22;100.00
14120;BME280;7138;49.246;9.100;2022-10-31T04:08:41;99176.75;;;13.18;100.00
14120;BME280;7138;49.246;9.100;2022-10-31T04:11:12;99171.56;;;13.18;100.00
14120;BME280;7138;49.246;9.100;2022-10-31T04:13:41;99176.75;;;13.14;100.00
14120;BME280;7138;49.246;9.100;2022-10-31T04:16:10;99170.69;;;13.05;100.00
14120;BME280;7138;49.246;9.100;2022-10-31T04:18:36;99169.00;;;13.01;100.00
14120;BME280;7138;49.246;9.100;2022-10-31T04:21:07;99178.50;;;13.03;100.00
14120;BME280;7138;49.246;9.100;2022-10-31T04:23:34;99168.13;;;13.00;100.00
14120;BME280;7138;49.246;9.100;2022-10-31T04:26:01;99167.25;;;12.98;100.00
14120;BME280;7138;49.246;9.100;2022-10-31T04:28:27;99167.25;;;12.95;100.00
14120;BME280;7138;49.246;9.100;2022-10-31T04:30:53;99163.81;;;12.93;100.00
14120;BME280;7138;49.246;9.100;2022-10-31T04:33:20;99167.28;;;12.91;100.00
14120;BME280;7138;49.246;9.100;2022-10-31T04:35:45;99171.63;;;12.87;100.00
14120;BME280;7138;49.246;9.100;2022-10-31T04:38:13;99164.69;;;12.86;100.00
14120;BME280;7138;49.246;9.100;2022-10-31T04:40:39;99145.66;;;12.77;100.00
14120;BME280;7138;49.246;9.100;2022-10-31T04:43:05;99166.44;;;12.87;100.00
14120;BME280;7138;49.246;9.100;2022-10-31T04:45:31;99162.97;;;12.87;100.00
14120;BME280;7138;49.246;9.100;2022-10-31T04:47:56;99167.31;;;12.85;100.00
14120;BME280;7138;49.246;9.100;2022-10-31T04:50:22;99156.06;;;12.81;100.00
14120;BME280;7138;49.246;9.100;2022-10-31T04:52:48;99160.38;;;12.78;100.00
14120;BME280;7138;49.246;9.100;2022-10-31T04:55:16;99163.00;;;12.73;100.00
14120;BME280;7138;49.246;9.100;2022-10-31T04:57:42;99154.34;;;12.68;100.00
14120;BME280;7138;49.246;9.100;2022-10-31T05:00:11;99150.88;;;12.65;100.00
14120;BME280;7138;49.246;9.100;2022-10-31T05:02:44;99143.97;;;12.62;100.00
14120;BME280;7138;49.246;9.100;2022-10-31T05:05:10;99143.13;;;12.60;100.00
14120;BME280;7138;49.246;9.100;2022-10-31T05:07:39;99140.53;;;12.55;100.00
14120;BME280;7138;49.246;9.100;2022-10-31T05:10:06;99140.53;;;12.52;100.00
14120;BME280;7138;49.246;9.100;2022-10-31T05:12:34;99144.88;;;12.50;100.00
14120;BME280;7138;49.246;9.100;2022-10-31T05:15:00;99137.97;;;12.48;100.00
14120;BME280;7138;49.246;9.100;2022-10-31T05:17:25;99132.78;;;12.48;100.00
14120;BME280;7138;49.246;9.100;2022-10-31T05:19:51;99129.31;;;12.46;100.00
14120;BME280;7138;49.246;9.100;2022-10-31T05:22:17;99131.94;;;12.40;100.00
14120;BME280;7138;49.246;9.100;2022-10-31T05:24:43;99133.66;;;12.39;100.00
14120;BME280;7138;49.246;9.100;2022-10-31T05:27:09;99130.19;;;12.36;100.00
14120;BME280;7138;49.246;9.100;2022-10-31T05:29:36;99122.41;;;12.36;100.00
14120;BME280;7138;49.246;9.100;2022-10-31T05:32:02;99123.28;;;12.33;100.00
14120;BME280;7138;49.246;9.100;2022-10-31T05:34:28;99122.41;;;12.31;100.00
14120;BME280;7138;49.246;9.100;2022-10-31T05:36:54;99125.00;;;12.25;100.00
14120;BME280;7138;49.246;9.100;2022-10-31T05:39:19;99123.28;;;12.23;100.00
14120;BME280;7138;49.246;9.100;2022-10-31T05:41:45;99112.94;;;12.15;100.00
14120;BME280;7138;49.246;9.100;2022-10-31T05:44:11;99112.03;;;12.07;100.00
14120;BME280;7138;49.246;9.100;2022-10-31T05:46:38;99118.09;;;12.07;100.00
14120;BME280;7138;49.246;9.100;2022-10-31T05:49:04;99115.53;;;12.03;100.00
14120;BME280;7138;49.246;9.100;2022-10-31T05:51:30;99125.00;;;12.02;100.00
14120;BME280;7138;49.246;9.100;2022-10-31T05:53:56;99123.28;;;12.03;100.00
14120;BME280;7138;49.246;9.100;2022-10-31T05:56:22;99119.81;;;12.04;100.00
14120;BME280;7138;49.246;9.100;2022-10-31T05:58:47;99127.59;;;12.04;100.00
14120;BME280;7138;49.246;9.100;2022-10-31T06:01:13;99130.19;;;12.02;100.00
14120;BME280;7138;49.246;9.100;2022-10-31T06:03:40;99131.94;;;12.03;100.00
14120;BME280;7138;49.246;9.100;2022-10-31T06:06:07;99118.09;;;12.04;100.00
14120;BME280;7138;49.246;9.100;2022-10-31T06:08:32;99126.75;;;12.02;100.00
14120;BME280;7138;49.246;9.100;2022-10-31T06:10:58;99134.53;;;12.03;100.00
14120;BME280;7138;49.246;9.100;2022-10-31T06:13:24;99129.34;;;12.07;100.00
14120;BME280;7138;49.246;9.100;2022-10-31T06:15:50;99126.75;;;12.10;100.00
14120;BME280;7138;49.246;9.100;2022-10-31T06:18:16;99126.75;;;12.11;100.00
14120;BME280;7138;49.246;9.100;2022-10-31T06:20:43;99133.66;;;12.14;100.00
14120;BME280;7138;49.246;9.100;2022-10-31T06:23:09;99135.38;;;12.13;100.00
14120;BME280;7138;49.246;9.100;2022-10-31T06:25:35;99131.94;;;12.13;100.00
14120;BME280;7138;49.246;9.100;2022-10-31T06:28:01;99133.66;;;12.14;100.00
14120;BME280;7138;49.246;9.100;2022-10-31T06:30:27;99133.66;;;12.14;100.00
14120;BME280;7138;49.246;9.100;2022-10-31T06:32:53;99124.16;;;12.16;100.00
14120;BME280;7138;49.246;9.100;2022-10-31T06:35:19;99125.88;;;12.18;100.00
14120;BME280;7138;49.246;9.100;2022-10-31T06:37:52;99125.00;;;12.21;100.00
14120;BME280;7138;49.246;9.100;2022-10-31T06:40:18;99125.88;;;12.21;100.00
14120;BME280;7138;49.246;9.100;2022-10-31T06:42:44;99131.94;;;12.25;100.00
14120;BME280;7138;49.246;9.100;2022-10-31T06:45:10;99128.47;;;12.29;100.00
14120;BME280;7138;49.246;9.100;2022-10-31T06:47:35;99134.50;;;12.32;100.00
14120;BME280;7138;49.246;9.100;2022-10-31T06:50:01;99123.28;;;12.29;100.00
14120;BME280;7138;49.246;9.100;2022-10-31T06:52:27;99139.69;;;12.35;100.00
14120;BME280;7138;49.246;9.100;2022-10-31T06:54:54;99141.41;;;12.35;100.00
14120;BME280;7138;49.246;9.100;2022-10-31T06:57:20;99141.44;;;12.36;100.00
14120;BME280;7138;49.246;9.100;2022-10-31T06:59:46;99142.31;;;12.37;100.00
14120;BME280;7138;49.246;9.100;2022-10-31T07:02:12;99137.09;;;12.35;100.00
14120;BME280;7138;49.246;9.100;2022-10-31T07:04:38;99151.78;;;12.35;100.00
14120;BME280;7138;49.246;9.100;2022-10-31T07:07:04;99146.63;;;12.30;100.00
14120;BME280;7138;49.246;9.100;2022-10-31T07:09:30;99141.44;;;12.30;100.00
14120;BME280;7138;49.246;9.100;2022-10-31T07:11:57;99146.63;;;12.27;100.00
14120;BME280;7138;49.246;9.100;2022-10-31T07:14:23;99142.31;;;12.28;100.00
14120;BME280;7138;49.246;9.100;2022-10-31T07:16:49;99144.88;;;12.38;100.00
14120;BME280;7138;49.246;9.100;2022-10-31T07:19:16;99139.69;;;12.41;100.00
14120;BME280;7138;49.246;9.100;2022-10-31T07:21:42;99141.41;;;12.50;100.00
14120;BME280;7138;49.246;9.100;2022-10-31T07:24:08;99137.09;;;12.61;100.00
14120;BME280;7138;49.246;9.100;2022-10-31T07:26:33;99141.34;;;12.74;100.00
14120;BME280;7138;49.246;9.100;2022-10-31T07:29:01;99144.78;;;12.87;100.00
14120;BME280;7138;49.246;9.100;2022-10-31T07:31:26;99143.00;;;13.02;100.00
14120;BME280;7138;49.246;9.100;2022-10-31T07:33:52;99142.97;;;13.21;100.00
14120;BME280;7138;49.246;9.100;2022-10-31T07:36:18;99148.09;;;13.36;100.00
14120;BME280;7138;49.246;9.100;2022-10-31T07:38:44;99143.69;;;13.50;100.00
14120;BME280;7138;49.246;9.100;2022-10-31T07:41:10;99141.88;;;13.65;100.00
14120;BME280;7138;49.246;9.100;2022-10-31T07:43:35;99141.84;;;13.72;100.00
14120;BME280;7138;49.246;9.100;2022-10-31T07:46:03;99140.06;;;13.78;100.00
14120;BME280;7138;49.246;9.100;2022-10-31T07:48:28;99135.66;;;13.89;100.00
14120;BME280;7138;49.246;9.100;2022-10-31T07:50:55;99136.47;;;14.00;100.00
14120;BME280;7138;49.246;9.100;2022-10-31T07:53:21;99138.09;;;14.10;100.00
14120;BME280;7138;49.246;9.100;2022-10-31T07:55:47;99141.53;;;14.18;100.00
14120;BME280;7138;49.246;9.100;2022-10-31T07:58:14;99138.00;;;14.24;100.00
14120;BME280;7138;49.246;9.100;2022-10-31T08:00:42;99137.09;;;14.31;100.00
14120;BME280;7138;49.246;9.100;2022-10-31T08:03:12;99134.44;;;14.40;100.00
14120;BME280;7138;49.246;9.100;2022-10-31T08:05:39;99133.47;;;14.50;100.00
14120;BME280;7138;49.246;9.100;2022-10-31T08:08:07;99124.78;;;14.51;100.00
14120;BME280;7138;49.246;9.100;2022-10-31T08:10:34;99125.63;;;14.55;100.00
14120;BME280;7138;49.246;9.100;2022-10-31T08:13:03;99139.38;;;14.66;100.00
14120;BME280;7138;49.246;9.100;2022-10-31T08:15:29;99140.22;;;14.69;100.00
14120;BME280;7138;49.246;9.100;2022-10-31T08:17:55;99140.19;;;14.72;100.00
14120;BME280;7138;49.246;9.100;2022-10-31T08:20:23;99136.66;;;14.80;100.00
14120;BME280;7138;49.246;9.100;2022-10-31T08:22:56;99136.56;;;14.87;100.00
14120;BME280;7138;49.246;9.100;2022-10-31T08:25:23;99138.25;;;14.91;100.00
14120;BME280;7138;49.246;9.100;2022-10-31T08:27:50;99139.97;;;14.95;100.00
14120;BME280;7138;49.246;9.100;2022-10-31T08:30:16;99141.56;;;15.05;100.00
14120;BME280;7138;49.246;9.100;2022-10-31T08:32:42;99138.84;;;15.16;100.00
14120;BME280;7138;49.246;9.100;2022-10-31T08:35:08;99131.78;;;15.24;100.00
14120;BME280;7138;49.246;9.100;2022-10-31T08:37:35;99130.84;;;15.31;100.00
14120;BME280;7138;49.246;9.100;2022-10-31T08:40:01;99125.50;;;15.40;100.00
14120;BME280;7138;49.246;9.100;2022-10-31T08:42:27;99134.09;;;15.50;100.00
14120;BME280;7138;49.246;9.100;2022-10-31T08:44:53;99125.25;;;15.60;100.00
14120;BME280;7138;49.246;9.100;2022-10-31T08:47:19;99115.56;;;15.71;100.00
14120;BME280;7138;49.246;9.100;2022-10-31T08:49:44;99124.91;;;15.84;100.00
14120;BME280;7138;49.246;9.100;2022-10-31T08:52:10;99115.19;;;15.95;100.00
14120;BME280;7138;49.246;9.100;2022-10-31T08:54:37;99117.56;;;16.09;100.00
14120;BME280;7138;49.246;9.100;2022-10-31T08:57:03;99113.16;;;16.14;100.00
14120;BME280;7138;49.246;9.100;2022-10-31T08:59:29;99115.63;;;16.21;100.00
14120;BME280;7138;49.246;9.100;2022-10-31T09:01:55;99108.59;;;16.25;99.88
14120;BME280;7138;49.246;9.100;2022-10-31T09:04:21;99101.50;;;16.33;99.43
14120;BME280;7138;49.246;9.100;2022-10-31T09:06:46;99102.38;;;16.33;99.64
14120;BME280;7138;49.246;9.100;2022-10-31T09:09:12;99100.63;;;16.32;99.11
14120;BME280;7138;49.246;9.100;2022-10-31T09:11:39;99102.41;;;16.30;99.86
14120;BME280;7138;49.246;9.100;2022-10-31T09:14:05;99103.19;;;16.37;99.82
14120;BME280;7138;49.246;9.100;2022-10-31T09:16:31;99101.31;;;16.44;99.38
14120;BME280;7138;49.246;9.100;2022-10-31T09:18:57;99100.34;;;16.48;100.00
14120;BME280;7138;49.246;9.100;2022-10-31T09:21:23;99096.81;;;16.53;99.37
14120;BME280;7138;49.246;9.100;2022-10-31T09:23:49;99095.81;;;16.62;99.96
14120;BME280;7138;49.246;9.100;2022-10-31T09:26:14;99100.84;;;16.71;100.00
14120;BME280;7138;49.246;9.100;2022-10-31T09:28:42;99099.81;;;16.78;99.42
14120;BME280;7138;49.246;9.100;2022-10-31T09:31:07;99099.63;;;16.90;100.00
14120;BME280;7138;49.246;9.100;2022-10-31T09:33:33;99092.47;;;16.98;100.00
14120;BME280;7138;49.246;9.100;2022-10-31T09:35:59;99100.09;;;17.09;99.83
14120;BME280;7138;49.246;9.100;2022-10-31T09:38:25;99092.97;;;17.17;98.96
14120;BME280;7138;49.246;9.100;2022-10-31T09:41:00;99091.84;;;17.28;98.62
14120;BME280;7138;49.246;9.100;2022-10-31T09:43:40;99091.59;;;17.40;98.51
14120;BME280;7138;49.246;9.100;2022-10-31T09:46:20;99094.81;;;17.52;98.31
14120;BME280;7138;49.246;9.100;2022-10-31T09:49:13;99085.09;;;17.60;97.04
14120;BME280;7138;49.246;9.100;2022-10-31T09:51:50;99083.22;;;17.65;98.29
14120;BME280;7138;49.246;9.100;2022-10-31T09:54:31;99083.81;;;17.76;98.21
14120;BME280;7138;49.246;9.100;2022-10-31T09:56:58;99087.06;;;17.87;96.75
14120;BME280;7138;49.246;9.100;2022-10-31T09:59:31;99089.50;;;17.94;96.12
14120;BME280;7138;49.246;9.100;2022-10-31T10:02:04;99078.94;;;17.97;96.03
14120;BME280;7138;49.246;9.100;2022-10-31T10:04:38;99080.47;;;18.08;96.20
14120;BME280;7138;49.246;9.100;2022-10-31T10:07:16;99080.22;;;18.17;95.13
14120;BME280;7138;49.246;9.100;2022-10-31T10:09:44;99080.84;;;18.26;95.82
14120;BME280;7138;49.246;9.100;2022-10-31T10:12:21;99086.59;;;18.40;96.78
14120;BME280;7138;49.246;9.100;2022-10-31T10:15:03;99086.38;;;18.49;95.57
14120;BME280;7138;49.246;9.100;2022-10-31T10:17:44;99088.03;;;18.53;93.76
14120;BME280;7138;49.246;9.100;2022-10-31T10:20:27;99090.34;;;18.64;93.58
14120;BME280;7138;49.246;9.100;2022-10-31T10:23:05;99077.88;;;18.74;92.67
14120;BME280;7138;49.246;9.100;2022-10-31T10:25:38;99070.81;;;18.76;93.75
14120;BME280;7138;49.246;9.100;2022-10-31T10:28:19;99078.66;;;18.76;92.70
14120;BME280;7138;49.246;9.100;2022-10-31T10:30:51;99076.06;;;18.76;94.05
14120;BME280;7138;49.246;9.100;2022-10-31T10:33:24;99067.91;;;18.86;94.87
14120;BME280;7138;49.246;9.100;2022-10-31T10:35:59;99063.44;;;18.90;93.18
14120;BME280;7138;49.246;9.100;2022-10-31T10:38:31;99074.56;;;18.98;92.63
14120;BME280;7138;49.246;9.100;2022-10-31T10:41:04;99067.41;;;19.03;94.52
14120;BME280;7138;49.246;9.100;2022-10-31T10:43:35;99055.09;;;19.06;94.05
14120;BME280;7138;49.246;9.100;2022-10-31T10:46:18;99057.25;;;19.22;94.10
14120;BME280;7138;49.246;9.100;2022-10-31T10:49:18;99042.16;;;19.30;92.74
14120;BME280;7138;49.246;9.100;2022-10-31T10:51:48;99045.50;;;19.35;92.18
14120;BME280;7138;49.246;9.100;2022-10-31T10:54:42;99039.38;;;19.36;91.39
14120;BME280;7138;49.246;9.100;2022-10-31T10:57:32;99038.38;;;19.40;93.06
14120;BME280;7138;49.246;9.100;2022-10-31T11:00:17;99031.06;;;19.51;91.65
14120;BME280;7138;49.246;9.100;2022-10-31T11:02:43;99034.53;;;19.51;92.98
14120;BME280;7138;49.246;9.100;2022-10-31T11:05:28;99029.94;;;19.58;92.01
14120;BME280;7138;49.246;9.100;2022-10-31T11:07:55;99032.47;;;19.61;92.07
14120;BME280;7138;49.246;9.100;2022-10-31T11:10:22;99027.97;;;19.64;93.25
14120;BME280;7138;49.246;9.100;2022-10-31T11:13:03;99022.44;;;19.74;91.03
14120;BME280;7138;49.246;9.100;2022-10-31T11:15:35;99012.69;;;19.77;90.63
14120;BME280;7138;49.246;9.100;2022-10-31T11:18:02;99014.47;;;19.77;91.55
14120;BME280;7138;49.246;9.100;2022-10-31T11:20:33;99000.56;;;19.73;91.28
14120;BME280;7138;49.246;9.100;2022-10-31T11:23:18;98985.00;;;19.69;90.76
14120;BME280;7138;49.246;9.100;2022-10-31T11:25:51;98987.63;;;19.69;90.66
14120;BME280;7138;49.246;9.100;2022-10-31T11:28:17;98987.56;;;19.70;91.79
14120;BME280;7138;49.246;9.100;2022-10-31T11:30:47;98984.00;;;19.73;91.80
14120;BME280;7138;49.246;9.100;2022-10-31T11:33:20;98979.38;;;19.79;90.87
14120;BME280;7138;49.246;9.100;2022-10-31T11:35:49;98979.47;;;19.76;91.18
14120;BME280;7138;49.246;9.100;2022-10-31T11:38:21;98979.59;;;19.73;91.88
14120;BME280;7138;49.246;9.100;2022-10-31T11:40:57;98976.16;;;19.71;91.02
14120;BME280;7138;49.246;9.100;2022-10-31T11:43:24;98971.13;;;19.65;91.77
14120;BME280;7138;49.246;9.100;2022-10-31T11:45:50;98974.63;;;19.64;92.66
14120;BME280;7138;49.246;9.100;2022-10-31T11:48:19;98960.69;;;19.63;91.62
14120;BME280;7138;49.246;9.100;2022-10-31T11:50:55;98963.22;;;19.67;91.69
14120;BME280;7138;49.246;9.100;2022-10-31T11:53:27;98958.75;;;19.69;91.38
14120;BME280;7138;49.246;9.100;2022-10-31T11:56:05;98951.66;;;19.72;91.90
14120;BME280;7138;49.246;9.100;2022-10-31T11:58:35;98954.31;;;19.71;92.29
14120;BME280;7138;49.246;9.100;2022-10-31T12:01:01;98949.81;;;19.74;90.40
14120;BME280;7138;49.246;9.100;2022-10-31T12:03:41;98939.22;;;19.77;89.35
14120;BME280;7138;49.246;9.100;2022-10-31T12:06:18;98948.09;;;19.73;88.89
14120;BME280;7138;49.246;9.100;2022-10-31T12:08:46;98942.06;;;19.71;89.59
14120;BME280;7138;49.246;9.100;2022-10-31T12:11:38;98936.75;;;19.73;90.22
14120;BME280;7138;49.246;9.100;2022-10-31T12:14:25;98930.59;;;19.74;90.39
14120;BME280;7138;49.246;9.100;2022-10-31T12:17:02;98923.53;;;19.76;90.66
14120;BME280;7138;49.246;9.100;2022-10-31T12:19:42;98919.34;;;19.70;90.56
14120;BME280;7138;49.246;9.100;2022-10-31T12:22:20;98923.53;;;19.76;90.62
14120;BME280;7138;49.246;9.100;2022-10-31T12:25:07;98917.25;;;19.80;89.91
14120;BME280;7138;49.246;9.100;2022-10-31T12:28:14;98918.88;;;19.84;91.96
14120;BME280;7138;49.246;9.100;2022-10-31T12:31:01;98921.50;;;19.84;90.68
14120;BME280;7138;49.246;9.100;2022-10-31T12:33:47;98929.09;;;19.91;89.73
14120;BME280;7138;49.246;9.100;2022-10-31T12:36:39;98921.88;;;19.98;89.68
14120;BME280;7138;49.246;9.100;2022-10-31T12:39:33;98904.44;;;19.97;90.69
14120;BME280;7138;49.246;9.100;2022-10-31T12:42:15;98892.09;;;19.99;89.82
14120;BME280;7138;49.246;9.100;2022-10-31T12:45:05;98890.03;;;20.07;89.74
14120;BME280;7138;49.246;9.100;2022-10-31T12:48:01;98890.91;;;20.07;89.80
14120;BME280;7138;49.246;9.100;2022-10-31T12:50:49;98893.38;;;20.12;89.99
14120;BME280;7138;49.246;9.100;2022-10-31T12:53:33;98885.50;;;20.12;90.80
14120;BME280;7138;49.246;9.100;2022-10-31T12:56:23;98880.94;;;20.17;89.77
14120;BME280;7138;49.246;9.100;2022-10-31T12:59:01;98886.19;;;20.17;90.09
14120;BME280;7138;49.246;9.100;2022-10-31T13:01:32;98885.09;;;20.23;89.57
14120;BME280;7138;49.246;9.100;2022-10-31T13:04:05;98880.72;;;20.23;89.90
14120;BME280;7138;49.246;9.100;2022-10-31T13:06:46;98865.06;;;20.20;90.38
14120;BME280;7138;49.246;9.100;2022-10-31T13:09:19;98858.53;;;20.07;90.22
14120;BME280;7138;49.246;9.100;2022-10-31T13:11:55;98869.41;;;20.21;92.01
14120;BME280;7138;49.246;9.100;2022-10-31T13:14:26;98871.84;;;20.27;91.71
14120;BME280;7138;49.246;9.100;2022-10-31T13:16:56;98864.63;;;20.32;91.97
14120;BME280;7138;49.246;9.100;2022-10-31T13:19:27;98856.56;;;20.37;91.25
14120;BME280;7138;49.246;9.100;2022-10-31T13:22:02;98853.00;;;20.39;90.96